createdAt,value
2023-02-09T00:01:17.989Z,11.47
2023-02-09T00:03:46.095Z,12.20
2023-02-09T00:06:15.754Z,12.33
2023-02-09T00:08:43.634Z,11.93
2023-02-09T00:11:14.081Z,10.80
2023-02-09T00:13:43.112Z,11.90
2023-02-09T00:16:11.399Z,13.23
2023-02-09T00:18:40.660Z,10.93
2023-02-09T00:21:10.694Z,13.27
2023-02-09T00:23:41.357Z,11.77
2023-02-09T00:26:11.778Z,13.20
2023-02-09T00:28:39.707Z,11.30
2023-02-09T00:31:08.735Z,11.47
2023-02-09T00:33:37.273Z,11.20
2023-02-09T00:36:08.253Z,11.50
2023-02-09T00:38:36.755Z,12.13
2023-02-09T00:41:05.302Z,12.50
2023-02-09T00:43:33.777Z,12.03
2023-02-09T00:46:01.838Z,11.90
2023-02-09T00:48:29.844Z,11.47
2023-02-09T00:50:57.673Z,12.00
2023-02-09T00:53:27.240Z,11.60
2023-02-09T00:55:55.001Z,12.40
2023-02-09T00:58:22.785Z,12.37
2023-02-09T01:00:51.167Z,12.13
2023-02-09T01:03:19.014Z,11.57
2023-02-09T01:05:46.812Z,12.30
2023-02-09T01:08:14.588Z,13.33
2023-02-09T01:10:43.902Z,13.23
2023-02-09T01:13:11.850Z,12.87
2023-02-09T01:15:40.787Z,11.80
2023-02-09T01:18:08.657Z,13.00
2023-02-09T01:20:36.677Z,13.77
2023-02-09T01:23:04.484Z,11.30
2023-02-09T01:25:32.262Z,12.17
2023-02-09T01:28:01.426Z,13.27
2023-02-09T01:30:29.598Z,12.37
2023-02-09T01:32:57.440Z,12.87
2023-02-09T01:35:25.234Z,12.50
2023-02-09T01:37:53.006Z,12.97
2023-02-09T01:40:20.835Z,13.17
2023-02-09T01:42:48.666Z,12.30
2023-02-09T01:45:23.798Z,11.40
2023-02-09T01:47:57.501Z,12.73
2023-02-09T01:50:26.632Z,12.33
2023-02-09T01:52:54.798Z,12.90
2023-02-09T01:55:25.318Z,12.30
2023-02-09T01:57:56.693Z,13.27
2023-02-09T02:00:26.606Z,12.97
2023-02-09T02:02:58.820Z,12.27
2023-02-09T02:05:28.847Z,12.73
2023-02-09T02:08:02.143Z,12.40
2023-02-09T02:10:30.150Z,12.10
2023-02-09T02:12:58.585Z,12.37
2023-02-09T02:15:30.993Z,13.53
2023-02-09T02:18:24.247Z,13.10
2023-02-09T02:21:12.323Z,12.90
2023-02-09T02:23:48.389Z,11.80
2023-02-09T02:26:51.694Z,12.10
2023-02-09T02:29:59.514Z,13.17
2023-02-09T02:32:39.891Z,12.33
2023-02-09T02:35:16.623Z,12.77
2023-02-09T02:37:56.884Z,12.03
2023-02-09T02:40:34.004Z,12.10
2023-02-09T02:43:09.596Z,12.40
2023-02-09T02:45:44.814Z,12.53
2023-02-09T02:48:21.619Z,13.13
2023-02-09T02:50:54.890Z,12.33
2023-02-09T02:53:27.161Z,11.40
2023-02-09T02:55:57.562Z,12.47
2023-02-09T02:58:26.761Z,13.17
2023-02-09T03:00:58.398Z,12.70
2023-02-09T03:03:32.520Z,11.93
2023-02-09T03:06:03.795Z,11.40
2023-02-09T03:08:31.561Z,13.27
2023-02-09T03:10:59.620Z,13.37
2023-02-09T03:13:41.537Z,12.87
2023-02-09T03:16:25.528Z,12.67
2023-02-09T03:19:05.363Z,12.40
2023-02-09T03:21:42.540Z,12.03
2023-02-09T03:24:20.318Z,12.27
2023-02-09T03:26:52.910Z,12.70
2023-02-09T03:29:22.575Z,12.30
2023-02-09T03:31:51.040Z,12.63
2023-02-09T03:34:20.503Z,13.20
2023-02-09T03:36:53.084Z,12.57
2023-02-09T03:39:20.917Z,13.60
2023-02-09T03:41:48.731Z,13.20
2023-02-09T03:44:28.636Z,12.07
2023-02-09T03:46:58.462Z,12.87
2023-02-09T03:49:29.619Z,12.57
2023-02-09T03:52:00.603Z,13.00
2023-02-09T03:54:28.749Z,11.50
2023-02-09T03:56:56.572Z,12.83
2023-02-09T03:59:25.815Z,12.00
2023-02-09T04:01:54.082Z,12.37
2023-02-09T04:04:22.986Z,13.87
2023-02-09T04:06:52.706Z,13.20
2023-02-09T04:09:20.877Z,13.37
2023-02-09T04:11:48.719Z,13.53
2023-02-09T04:14:16.712Z,14.50
2023-02-09T04:16:44.738Z,14.37
2023-02-09T04:19:12.569Z,12.83
2023-02-09T04:21:40.793Z,14.57
2023-02-09T04:24:10.555Z,12.97
2023-02-09T04:26:38.404Z,13.97
2023-02-09T04:29:06.192Z,13.40
2023-02-09T04:31:34.808Z,11.97
2023-02-09T04:34:02.999Z,13.47
2023-02-09T04:36:31.058Z,14.30
2023-02-09T04:38:58.848Z,13.70
2023-02-09T04:41:28.019Z,13.90
2023-02-09T04:43:55.796Z,13.47
2023-02-09T04:46:23.600Z,11.90
2023-02-09T04:48:51.406Z,12.20
2023-02-09T04:51:19.207Z,12.60
2023-02-09T04:53:46.973Z,14.00
2023-02-09T04:56:15.955Z,13.87
2023-02-09T04:59:02.697Z,13.27
2023-02-09T05:01:31.164Z,12.87
2023-02-09T05:03:59.043Z,13.13
2023-02-09T05:06:26.873Z,14.37
2023-02-09T05:08:54.659Z,13.00
2023-02-09T05:11:23.772Z,14.20
2023-02-09T05:13:54.567Z,13.33
2023-02-09T05:16:22.430Z,12.10
2023-02-09T05:18:51.056Z,14.10
2023-02-09T05:21:18.885Z,13.80
2023-02-09T05:23:46.691Z,14.70
2023-02-09T05:26:14.463Z,14.70
2023-02-09T05:28:42.385Z,14.83
2023-02-09T05:31:11.530Z,15.10
2023-02-09T05:33:39.334Z,13.53
2023-02-09T05:36:09.370Z,13.00
2023-02-09T05:38:37.665Z,14.23
2023-02-09T05:41:06.976Z,16.57
2023-02-09T05:43:35.386Z,15.80
2023-02-09T05:46:05.702Z,16.00
2023-02-09T05:48:36.241Z,14.50
2023-02-09T05:51:04.014Z,14.13
2023-02-09T05:53:31.776Z,14.47
2023-02-09T05:55:59.562Z,15.53
2023-02-09T05:58:27.412Z,13.60
2023-02-09T06:00:55.166Z,15.03
2023-02-09T06:03:23.023Z,14.87
2023-02-09T06:05:52.233Z,14.60
2023-02-09T06:08:20.153Z,14.53
2023-02-09T06:10:48.206Z,13.57
2023-02-09T06:13:16.458Z,15.40
2023-02-09T06:15:44.436Z,15.20
2023-02-09T06:18:12.229Z,16.20
2023-02-09T06:20:40.002Z,14.80
2023-02-09T06:23:09.123Z,14.53
2023-02-09T06:25:39.821Z,15.70
2023-02-09T06:28:07.703Z,18.33
2023-02-09T06:30:35.870Z,18.50
2023-02-09T06:33:03.733Z,17.20
2023-02-09T06:35:31.537Z,17.23
2023-02-09T06:38:00.289Z,17.63
2023-02-09T06:40:30.084Z,17.60
2023-02-09T06:42:58.094Z,18.80
2023-02-09T06:45:25.925Z,20.93
2023-02-09T06:47:53.728Z,18.73
2023-02-09T06:50:21.538Z,16.73
2023-02-09T06:52:49.605Z,17.43
2023-02-09T06:55:17.530Z,17.00
2023-02-09T06:57:46.608Z,17.20
2023-02-09T07:00:15.699Z,17.77
2023-02-09T07:02:43.880Z,16.80
2023-02-09T07:05:12.259Z,18.77
2023-02-09T07:07:40.622Z,19.20
2023-02-09T07:10:10.267Z,19.00
2023-02-09T07:12:40.373Z,19.50
2023-02-09T07:15:10.470Z,18.73
2023-02-09T07:17:38.273Z,18.13
2023-02-09T07:20:07.692Z,19.17
2023-02-09T07:22:35.776Z,18.10
2023-02-09T07:25:03.661Z,18.37
2023-02-09T07:27:31.444Z,19.03
2023-02-09T07:30:00.922Z,19.00
2023-02-09T07:32:30.438Z,18.40
2023-02-09T07:34:58.199Z,17.30
2023-02-09T07:37:25.954Z,18.97
2023-02-09T07:39:53.732Z,19.43
2023-02-09T07:42:23.300Z,19.63
2023-02-09T07:44:51.279Z,18.33
2023-02-09T07:47:19.083Z,19.33
2023-02-09T07:49:48.201Z,18.80
2023-02-09T07:52:15.980Z,19.00
2023-02-09T07:54:43.915Z,18.70
2023-02-09T07:57:13.568Z,18.13
2023-02-09T07:59:41.414Z,19.93
2023-02-09T08:02:18.011Z,19.90
2023-02-09T08:04:46.155Z,20.77
2023-02-09T08:07:15.310Z,19.90
2023-02-09T08:09:44.938Z,20.43
2023-02-09T08:12:12.809Z,19.77
2023-02-09T08:14:48.208Z,21.23
2023-02-09T08:17:24.082Z,21.67
2023-02-09T08:19:55.061Z,20.27
2023-02-09T08:22:25.869Z,19.87
2023-02-09T08:24:54.378Z,19.70
2023-02-09T08:27:23.191Z,17.60
2023-02-09T08:29:51.039Z,19.37
2023-02-09T08:32:19.241Z,17.70
2023-02-09T08:34:47.190Z,18.10
2023-02-09T08:37:14.974Z,19.93
2023-02-09T08:39:45.626Z,18.50
2023-02-09T08:42:13.384Z,19.10
2023-02-09T08:44:41.152Z,19.33
2023-02-09T08:47:09.049Z,18.07
2023-02-09T08:49:37.278Z,20.00
2023-02-09T08:52:05.428Z,19.13
2023-02-09T08:54:33.169Z,21.37
2023-02-09T08:57:02.654Z,21.20
2023-02-09T08:59:30.874Z,19.33
2023-02-09T09:01:58.646Z,19.30
2023-02-09T09:04:26.476Z,20.97
2023-02-09T09:06:54.873Z,19.73
2023-02-09T09:09:22.638Z,19.70
2023-02-09T09:11:50.400Z,18.90
2023-02-09T09:14:19.516Z,19.50
2023-02-09T09:16:47.349Z,18.90
2023-02-09T09:19:15.190Z,19.67
2023-02-09T09:21:43.008Z,20.57
2023-02-09T09:24:10.804Z,19.60
2023-02-09T09:26:38.566Z,19.83
2023-02-09T09:29:06.355Z,19.20
2023-02-09T09:31:37.050Z,18.50
2023-02-09T09:34:04.970Z,19.13
2023-02-09T09:36:32.829Z,19.13
2023-02-09T09:39:00.655Z,19.03
2023-02-09T09:41:32.422Z,21.83
2023-02-09T09:44:01.970Z,18.77
2023-02-09T09:46:36.877Z,18.07
2023-02-09T09:49:05.509Z,17.17
2023-02-09T09:51:39.796Z,15.93
2023-02-09T09:54:13.683Z,18.70
2023-02-09T09:56:42.238Z,21.30
2023-02-09T09:59:17.574Z,21.90
2023-02-09T10:01:47.871Z,21.97
2023-02-09T10:04:16.503Z,22.07
2023-02-09T10:06:46.577Z,19.53
2023-02-09T10:09:25.928Z,21.70
2023-02-09T10:12:00.007Z,21.00
2023-02-09T10:14:28.454Z,22.50
2023-02-09T10:16:57.575Z,20.80
2023-02-09T10:19:27.057Z,20.60
2023-02-09T10:21:56.335Z,19.80
2023-02-09T10:24:25.994Z,19.60
2023-02-09T10:27:06.170Z,20.00
2023-02-09T10:29:35.131Z,19.53
2023-02-09T10:32:08.857Z,19.53
2023-02-09T10:34:44.779Z,19.87
2023-02-09T10:37:20.283Z,19.33
2023-02-09T10:39:57.101Z,21.57
2023-02-09T10:42:30.225Z,19.50
2023-02-09T10:45:04.413Z,19.90
2023-02-09T10:47:33.838Z,21.33
2023-02-09T10:50:07.258Z,20.33
2023-02-09T10:52:36.684Z,20.00
2023-02-09T10:55:07.698Z,19.60
2023-02-09T10:57:38.171Z,20.33
2023-02-09T11:00:25.680Z,20.43
2023-02-09T11:02:57.644Z,19.73
2023-02-09T11:05:29.201Z,19.03
2023-02-09T11:08:02.148Z,19.87
2023-02-09T11:10:33.182Z,19.80
2023-02-09T11:13:01.862Z,21.10
2023-02-09T11:15:39.308Z,20.07
2023-02-09T11:18:14.605Z,20.03
2023-02-09T11:20:49.130Z,20.27
2023-02-09T11:23:36.962Z,21.00
2023-02-09T11:26:10.108Z,20.90
2023-02-09T11:28:49.260Z,20.47
2023-02-09T11:31:40.202Z,19.97
2023-02-09T11:34:19.471Z,20.23
2023-02-09T11:36:52.834Z,19.40
2023-02-09T11:39:27.545Z,20.17
2023-02-09T11:42:17.448Z,21.33
2023-02-09T11:44:52.858Z,20.60
2023-02-09T11:47:26.889Z,21.70
2023-02-09T11:50:00.300Z,19.77
2023-02-09T11:52:35.092Z,20.77
2023-02-09T11:55:09.539Z,20.30
2023-02-09T11:57:43.045Z,19.87
2023-02-09T12:00:20.172Z,20.03
2023-02-09T12:02:56.121Z,18.90
2023-02-09T12:05:26.001Z,19.00
2023-02-09T12:08:18.787Z,18.40
2023-02-09T12:10:54.777Z,19.73
2023-02-09T12:13:33.597Z,17.97
2023-02-09T12:16:05.605Z,18.30
2023-02-09T12:18:35.484Z,18.00
2023-02-09T12:21:06.830Z,17.83
2023-02-09T12:23:35.866Z,17.90
2023-02-09T12:26:24.250Z,17.70
2023-02-09T12:29:03.586Z,18.13
2023-02-09T12:31:52.310Z,19.00
2023-02-09T12:34:38.457Z,18.67
2023-02-09T12:37:20.064Z,17.80
2023-02-09T12:40:18.305Z,17.93
2023-02-09T12:42:47.513Z,18.30
2023-02-09T12:45:35.299Z,18.90
2023-02-09T12:48:17.607Z,18.87
2023-02-09T12:50:54.744Z,17.33
2023-02-09T12:53:50.457Z,18.73
2023-02-09T12:56:32.513Z,18.50
2023-02-09T12:59:18.399Z,18.70
2023-02-09T13:02:23.861Z,18.40
2023-02-09T13:05:08.911Z,17.80
2023-02-09T13:07:52.562Z,18.50
2023-02-09T13:10:26.171Z,16.83
2023-02-09T13:12:58.758Z,17.60
2023-02-09T13:15:32.465Z,18.80
2023-02-09T13:18:09.837Z,20.07
2023-02-09T13:21:13.879Z,18.83
2023-02-09T13:23:52.549Z,18.20
2023-02-09T13:26:23.408Z,18.10
2023-02-09T13:29:19.358Z,19.60
2023-02-09T13:31:57.323Z,17.40
2023-02-09T13:34:33.069Z,18.77
2023-02-09T13:37:16.168Z,17.40
2023-02-09T13:39:44.742Z,19.77
2023-02-09T13:42:18.618Z,17.87
2023-02-09T13:44:47.149Z,15.83
2023-02-09T13:47:16.504Z,15.87
2023-02-09T13:49:55.710Z,16.90
2023-02-09T13:52:26.746Z,15.30
2023-02-09T13:54:55.171Z,14.90
2023-02-09T13:57:31.782Z,17.07
2023-02-09T14:00:08.042Z,16.03
2023-02-09T14:02:36.825Z,19.57
2023-02-09T14:05:07.799Z,19.00
2023-02-09T14:07:38.513Z,17.30
2023-02-09T14:10:13.162Z,16.23
2023-02-09T14:12:56.567Z,16.70
2023-02-09T14:15:48.416Z,16.50
2023-02-09T14:18:24.616Z,17.73
2023-02-09T14:21:03.360Z,16.10
2023-02-09T14:23:35.080Z,16.10
2023-02-09T14:26:16.452Z,14.67
2023-02-09T14:28:47.307Z,16.43
2023-02-09T14:31:20.533Z,18.20
2023-02-09T14:33:49.709Z,18.03
2023-02-09T14:36:24.658Z,15.80
2023-02-09T14:39:05.560Z,16.63
2023-02-09T14:41:36.375Z,18.77
2023-02-09T14:44:18.523Z,17.53
2023-02-09T14:46:51.125Z,28.60
2023-02-09T14:49:19.332Z,24.63
2023-02-09T14:51:48.316Z,18.73
2023-02-09T14:54:24.931Z,16.93
2023-02-09T14:56:53.589Z,20.37
2023-02-09T14:59:22.536Z,17.40
2023-02-09T15:01:52.632Z,17.07
2023-02-09T15:04:20.976Z,15.10
2023-02-09T15:07:02.635Z,14.27
2023-02-09T15:09:37.899Z,14.43
2023-02-09T15:12:06.171Z,14.03
2023-02-09T15:14:42.980Z,14.93
2023-02-09T15:17:13.996Z,15.07
2023-02-09T15:19:42.167Z,17.00
2023-02-09T15:22:13.508Z,16.80
2023-02-09T15:24:43.045Z,16.83
2023-02-09T15:27:21.008Z,16.57
2023-02-09T15:29:49.131Z,16.30
2023-02-09T15:32:18.230Z,15.23
2023-02-09T15:34:46.752Z,15.87
2023-02-09T15:37:21.585Z,15.43
2023-02-09T15:39:52.143Z,16.67
2023-02-09T15:42:38.634Z,15.33
2023-02-09T15:45:34.257Z,14.83
2023-02-09T15:48:02.414Z,15.50
2023-02-09T15:50:31.636Z,16.10
2023-02-09T15:52:59.957Z,14.80
2023-02-09T15:55:29.474Z,14.10
2023-02-09T15:57:57.705Z,23.80
2023-02-09T16:00:27.145Z,45.03
2023-02-09T16:02:55.481Z,42.53
2023-02-09T16:05:24.462Z,33.40
2023-02-09T16:07:53.592Z,28.80
2023-02-09T16:10:26.524Z,135.03
2023-02-09T16:12:56.600Z,141.23
2023-02-09T16:15:25.577Z,111.33
2023-02-09T16:17:53.625Z,91.00
2023-02-09T16:20:22.212Z,42.73
2023-02-09T16:22:53.191Z,27.30
2023-02-09T16:25:24.663Z,18.60
2023-02-09T16:27:53.682Z,17.90
2023-02-09T16:30:24.387Z,18.20
2023-02-09T16:32:52.822Z,18.67
2023-02-09T16:35:21.707Z,14.93
2023-02-09T16:37:51.014Z,14.37
2023-02-09T16:40:25.488Z,14.90
2023-02-09T16:42:53.746Z,15.00
2023-02-09T16:45:24.253Z,14.70
2023-02-09T16:47:57.213Z,15.20
2023-02-09T16:50:28.096Z,14.70
2023-02-09T16:52:57.331Z,16.90
2023-02-09T16:55:28.780Z,14.80
2023-02-09T16:57:58.068Z,13.87
2023-02-09T17:00:29.857Z,14.40
2023-02-09T17:02:59.492Z,13.13
2023-02-09T17:05:28.364Z,12.40
2023-02-09T17:07:57.761Z,14.10
2023-02-09T17:10:27.128Z,13.93
2023-02-09T17:12:55.318Z,13.33
2023-02-09T17:15:30.488Z,13.37
2023-02-09T17:18:02.717Z,13.97
2023-02-09T17:20:33.791Z,14.80
2023-02-09T17:23:01.923Z,14.40
2023-02-09T17:25:30.141Z,13.43
2023-02-09T17:27:58.384Z,15.17
2023-02-09T17:30:26.543Z,14.40
2023-02-09T17:32:59.610Z,14.70
2023-02-09T17:35:58.073Z,15.37
2023-02-09T17:38:21.992Z,15.60
2023-02-09T17:40:50.285Z,16.53
2023-02-09T17:43:18.660Z,13.40
2023-02-09T17:45:49.442Z,13.90
2023-02-09T17:48:18.220Z,13.70
2023-02-09T17:50:48.679Z,16.10
2023-02-09T17:53:18.922Z,15.67
2023-02-09T17:55:47.297Z,17.70
2023-02-09T17:58:15.693Z,18.50
2023-02-09T18:00:44.320Z,19.60
2023-02-09T18:03:13.650Z,18.07
2023-02-09T18:05:42.036Z,18.93
2023-02-09T18:08:11.547Z,19.70
2023-02-09T18:10:39.914Z,19.73
2023-02-09T18:13:08.051Z,21.60
2023-02-09T18:15:37.142Z,19.83
2023-02-09T18:18:05.763Z,19.60
2023-02-09T18:20:35.980Z,20.00
2023-02-09T18:23:04.739Z,18.80
2023-02-09T18:25:34.992Z,19.10
2023-02-09T18:28:03.657Z,16.53
2023-02-09T18:30:32.931Z,19.00
2023-02-09T18:33:01.243Z,18.33
2023-02-09T18:35:33.052Z,17.80
2023-02-09T18:38:01.280Z,16.17
2023-02-09T18:40:29.894Z,14.30
2023-02-09T18:42:59.392Z,15.33
2023-02-09T18:45:27.517Z,15.60
2023-02-09T18:47:55.629Z,15.23
2023-02-09T18:50:24.982Z,16.80
2023-02-09T18:52:54.803Z,16.10
2023-02-09T18:55:24.447Z,16.17
2023-02-09T18:57:53.227Z,18.00
2023-02-09T19:00:23.494Z,16.47
2023-02-09T19:02:53.238Z,17.87
2023-02-09T19:05:21.663Z,16.50
2023-02-09T19:07:49.820Z,16.80
2023-02-09T19:10:19.079Z,17.60
2023-02-09T19:12:47.398Z,15.90
2023-02-09T19:15:15.713Z,15.50
2023-02-09T19:17:45.623Z,16.00
2023-02-09T19:20:17.484Z,15.70
2023-02-09T19:22:47.396Z,16.07
2023-02-09T19:25:15.629Z,15.90
2023-02-09T19:27:43.790Z,16.03
2023-02-09T19:30:14.208Z,16.20
2023-02-09T19:32:42.505Z,15.87
2023-02-09T19:35:12.332Z,13.83
2023-02-09T19:37:41.897Z,14.57
2023-02-09T19:40:20.808Z,15.90
2023-02-09T19:42:49.051Z,16.27
2023-02-09T19:45:17.328Z,14.83
2023-02-09T19:47:45.468Z,15.00
2023-02-09T19:50:16.037Z,15.50
2023-02-09T19:52:47.338Z,15.30
2023-02-09T19:55:16.546Z,15.40
2023-02-09T19:57:44.689Z,16.50
2023-02-09T20:00:17.985Z,18.90
2023-02-09T20:02:46.286Z,18.30
2023-02-09T20:05:15.852Z,16.27
2023-02-09T20:07:44.021Z,17.20
2023-02-09T20:10:12.392Z,17.20
2023-02-09T20:12:40.642Z,17.77
2023-02-09T20:15:08.991Z,18.23
2023-02-09T20:17:37.110Z,18.13
2023-02-09T20:20:05.603Z,22.50
2023-02-09T20:22:36.691Z,21.30
2023-02-09T20:25:04.975Z,21.83
2023-02-09T20:27:33.748Z,21.00
2023-02-09T20:30:03.863Z,21.87
2023-02-09T20:32:32.230Z,21.60
2023-02-09T20:35:00.361Z,20.63
2023-02-09T20:37:28.199Z,20.53
2023-02-09T20:39:57.474Z,19.30
2023-02-09T20:42:42.684Z,20.13
2023-02-09T20:45:31.150Z,20.43
2023-02-09T20:47:59.028Z,21.40
2023-02-09T20:50:27.110Z,19.40
2023-02-09T20:52:54.903Z,19.10
2023-02-09T20:55:24.078Z,20.10
2023-02-09T20:57:52.273Z,18.10
2023-02-09T21:00:20.622Z,21.00
2023-02-09T21:02:48.818Z,22.10
2023-02-09T21:05:17.583Z,20.73
2023-02-09T21:07:45.856Z,18.70
2023-02-09T21:10:15.675Z,18.37
2023-02-09T21:12:46.520Z,17.10
2023-02-09T21:15:14.962Z,16.60
2023-02-09T21:17:47.598Z,16.00
2023-02-09T21:20:16.324Z,14.73
2023-02-09T21:22:44.551Z,16.77
2023-02-09T21:25:13.719Z,15.47
2023-02-09T21:27:41.873Z,15.73
2023-02-09T21:30:12.060Z,15.67
2023-02-09T21:32:40.269Z,15.07
2023-02-09T21:35:10.267Z,13.97
2023-02-09T21:37:38.971Z,13.93
2023-02-09T21:40:07.345Z,16.03
2023-02-09T21:42:36.877Z,15.83
2023-02-09T21:45:07.677Z,14.57
2023-02-09T21:47:38.558Z,14.47
2023-02-09T21:50:07.782Z,15.10
2023-02-09T21:52:36.182Z,14.83
2023-02-09T21:55:04.357Z,15.00
2023-02-09T21:57:32.489Z,14.77
2023-02-09T22:00:05.240Z,15.57
2023-02-09T22:02:33.357Z,15.73
2023-02-09T22:05:02.859Z,21.53
2023-02-09T22:07:31.017Z,25.97
2023-02-09T22:09:59.215Z,19.97
2023-02-09T22:12:27.357Z,17.20
2023-02-09T22:14:55.492Z,18.87
2023-02-09T22:17:23.255Z,16.23
2023-02-09T22:19:51.066Z,16.07
2023-02-09T22:22:20.187Z,16.50
2023-02-09T22:24:47.964Z,16.60
2023-02-09T22:27:15.752Z,15.07
2023-02-09T22:29:44.229Z,14.80
2023-02-09T22:32:12.021Z,16.17
2023-02-09T22:34:39.956Z,15.17
2023-02-09T22:37:07.746Z,14.70
2023-02-09T22:39:36.913Z,15.10
2023-02-09T22:42:05.021Z,14.60
2023-02-09T22:44:33.435Z,15.47
2023-02-09T22:47:01.246Z,14.37
2023-02-09T22:49:29.069Z,14.97
2023-02-09T22:51:56.845Z,14.07
2023-02-09T22:54:24.649Z,13.60
2023-02-09T22:56:53.808Z,14.10
2023-02-09T22:59:21.612Z,11.97
2023-02-09T23:01:49.515Z,12.10
2023-02-09T23:04:17.381Z,12.03
2023-02-09T23:06:45.407Z,12.73
2023-02-09T23:09:15.004Z,12.40
2023-02-09T23:11:44.112Z,12.13
2023-02-09T23:14:13.565Z,12.20
2023-02-09T23:16:43.121Z,11.60
2023-02-09T23:19:14.051Z,12.87
2023-02-09T23:21:44.284Z,12.93
2023-02-09T23:24:12.910Z,12.30
2023-02-09T23:26:41.457Z,11.77
2023-02-09T23:29:12.258Z,11.73
2023-02-09T23:31:41.856Z,11.73
2023-02-09T23:34:12.694Z,11.53
2023-02-09T23:36:40.529Z,12.30
2023-02-09T23:39:08.503Z,11.93
2023-02-09T23:41:36.543Z,12.87
2023-02-09T23:44:04.721Z,13.20
2023-02-09T23:46:32.614Z,12.00
2023-02-09T23:49:01.774Z,12.20
2023-02-09T23:51:31.666Z,12.13
2023-02-09T23:54:01.586Z,12.70
2023-02-09T23:56:31.698Z,13.07
2023-02-09T23:58:59.859Z,11.77
